Time;durP1;ratioP1;P1;durP2;ratioP2;P2;SDS_P1;SDS_P2;PMS_P1;PMS_P2;Temp;Humidity;BMP_temperature;BMP_pressure;BME280_temperature;BME280_humidity;BME280_pressure;Samples;Min_cycle;Max_cycle;Signal;HPM_P1;HPM_P2
2022/01/24 01:37:14;;;;;;;24.30;13.10;;;;;;;11.75;61.39;103065.81;5973537;23;99815;-78
2022/01/24 01:54:22;;;;;;;23.42;12.57;;;;;;;12.28;60.34;103068.22;5046282;27;97572;-79
2022/01/24 01:57:15;;;;;;;21.92;12.15;;;;;;;12.41;59.59;103069.03;5047281;27;99146;-80
2022/01/24 02:00:33;;;;;;;;;;;;;;;;;;;;;
2022/01/24 02:52:53;;;;;;;;;;;;;;;;;;;;;
2022/01/24 02:56:21;;;;;;;;;;;;;;;;;;;;;
2022/01/24 02:59:23;;;;;;;;;;;;;;;;;;;;;
2022/01/24 03:02:19;;;;;;;25.23;11.82;;;;;;;12.22;58.59;103055.00;4902284;28;126751;-79
2022/01/24 03:05:27;;;;;;;;;;;;;;;;;;;;;
2022/01/24 03:17:41;;;;;;;;;;;;;;;;;;;;;
2022/01/24 03:26:55;;;;;;;;;;;;;;;;;;;;;
2022/01/24 03:29:41;;;;;;;;;;;;;;;;;;;;;
2022/01/24 03:32:08;;;;;;;21.63;12.77;;;;;;;11.84;58.88;103041.09;5026682;28;114091;-78
2022/01/24 03:34:45;;;;;;;;;;;;;;;;;;;;;
2022/01/24 03:37:12;;;;;;;24.88;13.07;;;;;;;11.73;59.76;103038.47;5020436;27;125880;-78
2022/01/24 03:39:41;;;;;;;19.63;11.63;;;;;;;11.60;59.47;103052.63;5032344;27;99148;-78
2022/01/24 03:42:09;;;;;;;18.73;12.02;;;;;;;11.79;59.48;103051.72;5029081;27;97562;-77
2022/01/24 03:44:37;;;;;;;20.23;11.75;;;;;;;11.99;59.02;103056.91;5045686;27;97912;-77
2022/01/24 03:55:41;;;;;;;;;;;;;;;;;;;;;
2022/01/24 03:58:41;;;;;;;;;;;;;;;;;;;;;
2022/01/24 04:02:04;;;;;;;;;;;;;;;;;;;;;
2022/01/24 04:05:13;;;;;;;;;;;;;;;;;;;;;
2022/01/24 04:08:18;;;;;;;19.27;11.40;;;;;;;11.66;60.03;103055.25;5012279;28;114162;-78
2022/01/24 04:11:36;;;;;;;22.95;12.43;;;;;;;10.99;61.26;103059.78;5021311;28;98335;-79
2022/01/24 04:14:54;;;;;;;18.70;11.43;;;;;;;11.28;61.60;103055.38;4902912;28;100596;-78
2022/01/24 04:18:08;;;;;;;;;;;;;;;;;;;;;
2022/01/24 04:24:29;;;;;;;;;;;;;;;;;;;;;
2022/01/24 04:27:08;;;;;;;22.95;13.63;;;;;;;11.93;59.63;103051.66;4952283;28;126818;-78
2022/01/24 04:32:59;;;;;;;;;;;;;;;;;;;;;
2022/01/24 04:36:03;;;;;;;;;;;;;;;;;;;;;
2022/01/24 04:38:53;;;;;;;20.73;13.48;;;;;;;11.63;60.65;103052.59;4943382;28;127918;-79
2022/01/24 04:41:52;;;;;;;24.05;14.30;;;;;;;11.80;60.01;103055.25;4925873;28;96884;-79
2022/01/24 04:45:06;;;;;;;;;;;;;;;;;;;;;
2022/01/24 04:51:25;;;;;;;;;;;;;;;;;;;;;
2022/01/24 04:57:12;;;;;;;24.95;13.50;;;;;;;11.74;58.99;103068.50;4958618;28;97030;-78
2022/01/24 04:59:50;;;;;;;;;;;;;;;;;;;;;
2022/01/24 05:02:22;;;;;;;23.90;14.43;;;;;;;12.05;59.87;103074.56;5010300;28;125085;-78
2022/01/24 05:05:00;;;;;;;;;;;;;;;;;;;;;
2022/01/24 05:07:33;;;;;;;29.17;13.63;;;;;;;11.96;60.04;103067.50;5002913;28;113792;-77
2022/01/24 05:10:19;;;;;;;21.83;12.63;;;;;;;12.16;58.43;103068.31;5013411;28;98881;-78
2022/01/24 05:23:36;;;;;;;;;;;;;;;;;;;;;
2022/01/24 05:25:06;;;;;;;23.13;13.15;;;;;;;11.89;58.67;103076.38;5003194;27;97623;-77
2022/01/24 05:31:06;;;;;;;;;;;;;;;;;;;;;
2022/01/24 05:33:55;;;;;;;;;;;;;;;;;;;;;
2022/01/24 05:39:15;;;;;;;16.48;11.18;;;;;;;11.38;59.50;103083.56;5017351;28;96793;-78
2022/01/24 05:42:21;;;;;;;;;;;;;;;;;;;;;
2022/01/24 05:48:48;;;;;;;;;;;;;;;;;;;;;
2022/01/24 05:52:09;;;;;;;;;;;;;;;;;;;;;
2022/01/24 05:55:16;;;;;;;;;;;;;;;;;;;;;
2022/01/24 06:16:56;;;;;;;;;;;;;;;;;;;;;
2022/01/24 06:22:45;;;;;;;17.77;10.90;;;;;;;11.33;58.55;103095.94;4990261;28;97181;-78
2022/01/24 06:25:13;;;;;;;17.30;10.95;;;;;;;11.66;57.72;103107.34;4989470;28;99113;-76
2022/01/24 06:27:48;;;;;;;24.08;11.52;;;;;;;11.68;57.31;103101.16;4991763;28;98664;-77
2022/01/24 06:30:16;;;;;;;18.55;11.25;;;;;;;11.58;57.79;103105.59;4995874;28;96887;-78
2022/01/24 06:32:46;;;;;;;23.15;12.00;;;;;;;11.72;57.60;103104.66;4991883;28;98907;-77
2022/01/24 06:35:14;;;;;;;17.73;11.75;;;;;;;11.67;57.47;103098.50;4989684;28;98487;-78
2022/01/24 06:37:43;;;;;;;20.33;11.07;;;;;;;11.90;57.52;103094.94;4993999;28;97825;-77
2022/01/24 06:40:12;;;;;;;19.88;11.18;;;;;;;12.01;56.54;103104.63;4990013;28;97062;-78
2022/01/24 06:42:39;;;;;;;17.45;11.18;;;;;;;12.07;56.59;103096.63;4993472;28;98926;-77
2022/01/24 06:45:48;;;;;;;15.73;11.38;;;;;;;12.04;56.64;103110.78;4993839;28;99044;-81
2022/01/24 06:48:16;;;;;;;16.05;11.18;;;;;;;11.91;57.20;103106.41;4995994;28;97640;-77
2022/01/24 06:50:43;;;;;;;17.15;10.70;;;;;;;11.75;57.27;103108.22;4994449;28;97146;-76
2022/01/24 06:53:14;;;;;;;16.20;10.07;;;;;;;11.63;57.47;103105.56;4993017;28;99303;-78
2022/01/24 06:55:42;;;;;;;17.45;10.93;;;;;;;11.36;58.82;103102.97;4995027;28;100264;-78
2022/01/24 07:01:19;;;;;;;15.88;11.18;;;;;;;11.71;57.48;103118.78;4995252;28;97259;-78
2022/01/24 07:06:51;;;;;;;14.98;10.18;;;;;;;11.45;58.52;103129.44;4971479;28;99171;-77
2022/01/24 07:09:17;;;;;;;13.38;9.68;;;;;;;11.38;59.08;103128.56;4991312;28;97008;-77
2022/01/24 07:11:46;;;;;;;15.23;9.90;;;;;;;11.54;58.74;103129.44;4991101;28;96875;-78
2022/01/24 07:15:15;;;;;;;14.52;9.63;;;;;;;11.49;58.70;103131.19;4998114;28;99019;-79
2022/01/24 07:18:11;;;;;;;;;;;;;;;;;;;;;
2022/01/24 07:20:43;;;;;;;16.45;10.15;;;;;;;11.42;58.51;103132.97;4995473;28;111450;-77
2022/01/24 07:23:12;;;;;;;16.38;10.13;;;;;;;11.31;58.85;103139.16;4997831;28;96842;-79
2022/01/24 07:25:43;;;;;;;19.10;10.38;;;;;;;11.72;58.06;103139.09;4987817;28;98164;-77
2022/01/24 07:28:09;;;;;;;19.73;9.90;;;;;;;11.08;60.09;103140.06;4990515;28;98866;-77
2022/01/24 07:30:36;;;;;;;17.02;10.00;;;;;;;11.49;59.04;103140.00;4993528;28;98197;-76
2022/01/24 07:33:02;;;;;;;15.68;10.18;;;;;;;11.05;59.90;103141.81;4993704;28;96958;-76
2022/01/24 07:35:29;;;;;;;14.88;9.75;;;;;;;10.84;59.91;103144.44;4985765;28;98917;-77
2022/01/24 07:37:59;;;;;;;17.20;10.35;;;;;;;11.22;59.69;103152.41;5004129;22;98756;-72
2022/01/24 07:40:26;;;;;;;18.05;10.52;;;;;;;11.55;59.06;103136.50;4992608;28;96833;-72
2022/01/24 07:42:56;;;;;;;19.88;12.27;;;;;;;11.45;58.64;103146.22;4990222;28;98063;-74
2022/01/24 07:45:27;;;;;;;19.00;11.20;;;;;;;11.27;59.32;103138.28;4991738;28;98881;-75
2022/01/24 07:47:55;;;;;;;19.50;11.57;;;;;;;11.23;58.46;103141.81;4995030;28;98027;-72
2022/01/24 07:50:25;;;;;;;16.80;10.40;;;;;;;11.36;58.92;103140.91;4994236;28;97592;-75
2022/01/24 07:52:51;;;;;;;17.42;10.90;;;;;;;11.58;58.91;103142.66;4991085;28;98484;-74
2022/01/24 07:55:20;;;;;;;17.30;10.07;;;;;;;11.93;57.35;103144.38;4991224;28;99644;-74
2022/01/24 07:57:47;;;;;;;15.90;10.25;;;;;;;11.97;56.89;103143.47;4992803;28;100580;-76
2022/01/24 08:00:14;;;;;;;20.85;10.35;;;;;;;11.90;57.31;103136.44;4991918;28;96755;-75
2022/01/24 08:02:49;;;;;;;14.00;8.85;;;;;;;12.16;56.28;103134.56;4991184;28;97282;-73
2022/01/24 08:05:15;;;;;;;18.45;10.20;;;;;;;12.20;56.22;103135.44;4993951;28;98188;-74
2022/01/24 08:07:43;;;;;;;13.77;8.43;;;;;;;12.09;55.46;103138.13;4992023;28;99146;-73
2022/01/24 08:10:10;;;;;;;13.52;8.48;;;;;;;11.85;56.70;103144.41;4991207;28;97116;-74
2022/01/24 08:12:39;;;;;;;15.85;8.63;;;;;;;11.72;56.67;103137.34;4988725;28;97794;-73
2022/01/24 08:15:08;;;;;;;12.75;8.27;;;;;;;11.45;57.08;103148.84;4986266;28;98148;-73
2022/01/24 08:17:35;;;;;;;13.13;8.88;;;;;;;11.69;56.64;103145.28;4985687;28;98785;-73
2022/01/24 08:20:01;;;;;;;12.00;7.78;;;;;;;11.71;56.76;103146.16;4991024;28;96858;-73
2022/01/24 08:22:27;;;;;;;11.00;7.47;;;;;;;11.37;57.45;103155.03;4987447;28;97160;-74
2022/01/24 08:24:54;;;;;;;12.40;7.60;;;;;;;11.77;56.70;103151.47;4991972;28;99266;-70
2022/01/24 08:27:20;;;;;;;14.68;7.70;;;;;;;12.10;56.02;103155.78;4987566;28;98262;-71
2022/01/24 08:29:49;;;;;;;14.32;8.45;;;;;;;12.08;55.25;103156.72;4989563;28;98423;-71
2022/01/24 08:32:16;;;;;;;12.70;8.25;;;;;;;12.00;55.47;103159.38;4989432;28;97433;-71
2022/01/24 08:34:43;;;;;;;12.57;7.28;;;;;;;11.74;55.80;103158.56;4990952;28;99358;-71
2022/01/24 08:37:09;;;;;;;12.90;6.80;;;;;;;11.70;55.98;103154.09;4987483;28;98168;-71
2022/01/24 08:39:36;;;;;;;12.32;7.18;;;;;;;11.93;55.99;103163.81;4992838;28;97365;-71
2022/01/24 08:42:13;;;;;;;11.00;7.22;;;;;;;12.19;54.70;103160.19;4990254;28;97249;-69
2022/01/24 08:47:27;;;;;;;12.65;7.07;;;;;;;12.09;55.13;103154.03;4988561;28;97252;-72
2022/01/24 08:49:55;;;;;;;20.67;10.80;;;;;;;12.10;54.42;103147.84;4991157;28;96822;-71
2022/01/24 08:52:22;;;;;;;15.63;8.10;;;;;;;12.09;54.11;103140.78;4989871;28;98709;-68
2022/01/24 08:54:49;;;;;;;13.85;6.65;;;;;;;12.33;53.93;103148.66;4986968;28;98239;-69
2022/01/24 08:57:21;;;;;;;13.32;7.65;;;;;;;12.26;54.55;103144.25;4987245;28;99401;-70
2022/01/24 08:59:53;;;;;;;12.32;7.70;;;;;;;12.57;53.37;103146.75;4988772;28;97935;-70
2022/01/24 09:02:20;;;;;;;13.18;7.05;;;;;;;12.40;53.87;103145.97;4980328;28;97490;-70
2022/01/24 09:04:48;;;;;;;14.98;8.20;;;;;;;12.65;53.82;103150.22;4981925;28;99123;-71
2022/01/24 09:07:17;;;;;;;18.45;9.38;;;;;;;12.70;52.98;103145.78;4989469;28;100104;-71
2022/01/24 09:09:44;;;;;;;13.90;8.32;;;;;;;12.78;53.02;103149.25;4990977;28;96785;-71
2022/01/24 09:12:12;;;;;;;13.43;7.53;;;;;;;12.76;52.63;103153.69;4991658;28;96952;-70
2022/01/24 09:14:39;;;;;;;12.57;7.22;;;;;;;13.00;52.26;103145.53;4990374;28;102223;-72
2022/01/24 09:17:06;;;;;;;12.95;7.57;;;;;;;12.92;52.44;103149.16;4988367;28;98671;-71
2022/01/24 09:19:32;;;;;;;13.27;6.95;;;;;;;12.46;52.11;103148.56;4989684;28;98694;-70
2022/01/24 09:22:00;;;;;;;11.57;7.95;;;;;;;12.45;52.39;103144.16;4989531;28;96901;-74
2022/01/24 09:24:27;;;;;;;10.25;7.30;;;;;;;12.14;53.56;103141.63;4990030;28;99556;-69
2022/01/24 09:26:57;;;;;;;12.25;7.40;;;;;;;12.05;53.59;103140.81;4988969;28;98987;-72
2022/01/24 09:29:23;;;;;;;11.07;7.40;;;;;;;12.17;53.26;103136.34;4992492;28;97994;-71
2022/01/24 09:31:54;;;;;;;11.70;7.43;;;;;;;12.21;53.81;103138.06;4987158;28;99118;-71
2022/01/24 09:34:26;;;;;;;13.73;8.07;;;;;;;12.58;52.57;103137.91;4989136;28;99467;-71
2022/01/24 09:36:52;;;;;;;15.25;8.35;;;;;;;12.64;52.68;103125.47;4986452;28;99582;-71
2022/01/24 09:39:20;;;;;;;11.98;7.80;;;;;;;12.72;52.33;103126.31;4986066;28;97201;-71
2022/01/24 09:41:47;;;;;;;10.55;7.40;;;;;;;12.77;52.37;103128.94;4993014;28;97509;-69
2022/01/24 09:44:14;;;;;;;14.90;8.27;;;;;;;12.61;52.85;103133.44;4989242;28;99003;-71
2022/01/24 09:46:41;;;;;;;20.20;8.65;;;;;;;12.92;52.24;103133.25;4992061;28;99214;-72
2022/01/24 09:49:08;;;;;;;13.10;8.15;;;;;;;13.27;50.66;103132.97;4989947;28;96810;-70
2022/01/24 09:51:37;;;;;;;14.23;7.35;;;;;;;12.93;51.06;103135.88;4993059;28;97875;-71
2022/01/24 09:54:04;;;;;;;9.70;6.07;;;;;;;12.67;51.38;103129.84;4989913;28;98734;-70
2022/01/24 09:56:33;;;;;;;14.73;7.30;;;;;;;12.83;51.54;103133.31;4987647;28;98955;-72
2022/01/24 09:59:00;;;;;;;11.45;6.72;;;;;;;13.07;50.85;103133.09;4991457;28;97188;-69
2022/01/24 10:01:35;;;;;;;12.80;6.95;;;;;;;12.96;50.65;103133.19;4998042;28;96690;-72
2022/01/24 10:04:10;;;;;;;12.65;6.88;;;;;;;12.97;50.84;103129.66;4992366;28;99604;-71
2022/01/24 10:06:55;;;;;;;16.20;8.10;;;;;;;12.80;50.85;103131.53;4995484;28;98331;-70
2022/01/24 10:09:31;;;;;;;23.73;8.90;;;;;;;12.61;51.64;103143.16;4994958;28;96951;-71
2022/01/24 10:16:24;;;;;;;14.10;7.85;;;;;;;12.69;51.30;103141.34;4991323;28;96761;-69
2022/01/24 10:18:02;;;;;;;15.02;8.65;;;;;;;12.59;52.58;103134.34;4994377;28;99513;-71
2022/01/24 10:20:33;;;;;;;14.35;8.55;;;;;;;12.55;52.24;103133.47;4994124;28;96960;-70
2022/01/24 10:23:08;;;;;;;14.68;7.78;;;;;;;12.27;52.13;103135.38;4995387;28;98457;-72
2022/01/24 10:25:52;;;;;;;14.50;8.68;;;;;;;12.30;52.34;103129.19;4999687;28;102048;-73
2022/01/24 10:28:25;;;;;;;13.20;8.27;;;;;;;12.45;51.99;103125.59;4991967;28;98414;-72
2022/01/24 10:31:02;;;;;;;14.63;8.50;;;;;;;12.61;51.67;103121.94;4994562;28;97262;-71
2022/01/24 10:33:29;;;;;;;16.77;8.30;;;;;;;12.23;53.03;103117.75;4991988;28;97088;-70
2022/01/24 10:35:56;;;;;;;14.93;8.82;;;;;;;12.38;52.82;103125.63;4994331;28;98923;-70
2022/01/24 10:38:28;;;;;;;15.98;8.40;;;;;;;12.58;52.03;103111.38;4990172;28;98910;-72
2022/01/24 10:41:16;;;;;;;14.35;8.38;;;;;;;11.76;53.42;103115.28;4987459;28;97625;-71
2022/01/24 10:43:45;;;;;;;13.77;7.90;;;;;;;12.17;53.46;103115.13;4994119;28;97550;-74
2022/01/24 10:46:12;;;;;;;11.68;7.25;;;;;;;12.10;52.01;103107.19;4993431;28;99176;-71
2022/01/24 10:48:40;;;;;;;13.30;7.68;;;;;;;12.67;52.38;103106.00;4994153;28;98698;-70
2022/01/24 10:51:11;;;;;;;12.02;7.47;;;;;;;12.89;51.26;103106.72;4995417;28;97198;-72
2022/01/24 10:53:41;;;;;;;12.55;7.60;;;;;;;13.15;50.09;103100.34;4995265;28;96947;-71
2022/01/24 10:56:28;;;;;;;12.70;7.78;;;;;;;13.02;50.89;103103.06;4996188;28;100385;-70
2022/01/24 10:59:06;;;;;;;10.30;6.43;;;;;;;13.25;49.31;103097.63;4989980;28;97777;-71
2022/01/24 11:01:34;;;;;;;12.43;7.85;;;;;;;13.07;49.68;103093.28;4990543;28;96938;-71
2022/01/24 11:04:01;;;;;;;14.43;7.72;;;;;;;12.79;50.37;103092.66;4993857;28;96835;-71
2022/01/24 11:06:30;;;;;;;10.25;7.15;;;;;;;12.60;50.74;103093.69;4991606;28;100421;-70
2022/01/24 11:09:13;;;;;;;26.63;14.07;;;;;;;11.73;52.88;103102.03;4994728;28;98568;-70
2022/01/24 11:11:39;;;;;;;12.48;7.72;;;;;;;12.15;52.03;103097.47;4991483;28;98117;-71
2022/01/24 11:14:09;;;;;;;13.25;7.95;;;;;;;12.46;51.29;103095.53;5002657;28;96942;-72
2022/01/24 11:16:35;;;;;;;11.23;7.10;;;;;;;12.60;50.85;103088.38;4991211;28;98912;-71
2022/01/24 11:19:04;;;;;;;11.75;6.03;;;;;;;12.46;50.60;103083.16;4999891;28;99196;-73
2022/01/24 11:21:33;;;;;;;7.93;5.30;;;;;;;12.10;50.95;103084.25;4993910;28;97201;-72
2022/01/24 11:24:03;;;;;;;8.80;5.60;;;;;;;12.17;50.88;103087.75;4992665;28;97020;-71
2022/01/24 11:26:35;;;;;;;11.77;6.47;;;;;;;11.83;51.36;103084.34;4992988;28;99607;-72
2022/01/24 11:29:11;;;;;;;7.90;4.85;;;;;;;12.09;52.08;103081.59;4995019;28;101061;-75
2022/01/24 11:31:45;;;;;;;10.10;6.00;;;;;;;11.86;52.08;103082.59;4992461;28;96870;-71
2022/01/24 11:34:20;;;;;;;15.13;6.95;;;;;;;11.87;52.44;103075.53;4992027;28;97006;-70
2022/01/24 11:36:47;;;;;;;10.07;6.57;;;;;;;12.08;51.85;103074.56;4993723;28;99281;-72
2022/01/24 11:39:21;;;;;;;11.38;6.07;;;;;;;12.37;51.31;103070.84;4994122;28;98901;-72
2022/01/24 11:41:48;;;;;;;8.98;6.03;;;;;;;12.56;50.81;103065.41;4995538;28;96767;-72
2022/01/24 11:44:17;;;;;;;9.23;6.43;;;;;;;12.04;50.74;103068.38;4994845;28;97504;-72
2022/01/24 11:46:48;;;;;;;8.18;5.10;;;;;;;11.56;52.69;103072.94;4987783;28;100154;-71
2022/01/24 11:49:17;;;;;;;7.97;5.35;;;;;;;11.36;52.29;103064.16;4997449;28;98650;-71
2022/01/24 11:51:46;;;;;;;8.43;4.85;;;;;;;10.95;53.42;103065.97;4994952;28;97675;-71
2022/01/24 11:54:45;;;;;;;7.13;4.68;;;;;;;11.62;52.16;103060.56;4991928;28;97417;-69
2022/01/24 11:57:17;;;;;;;14.82;7.47;;;;;;;11.45;52.31;103066.78;4988776;28;97924;-70
2022/01/24 11:59:48;;;;;;;8.18;4.53;;;;;;;11.81;51.62;103071.13;4992022;28;98950;-71
2022/01/24 12:02:23;;;;;;;14.35;7.63;;;;;;;11.88;51.03;103069.34;4991472;28;98725;-72
2022/01/24 12:04:52;;;;;;;10.60;5.32;;;;;;;12.02;50.76;103067.47;4993467;28;97129;-70
2022/01/24 12:07:21;;;;;;;9.88;5.32;;;;;;;12.27;50.51;103074.41;4992807;28;99345;-70
2022/01/24 12:09:48;;;;;;;10.38;4.90;;;;;;;12.13;49.79;103068.34;4991571;28;98611;-69
2022/01/24 12:12:39;;;;;;;7.05;4.43;;;;;;;11.05;52.84;103068.59;4992170;28;96879;-71
2022/01/24 12:15:08;;;;;;;8.05;4.45;;;;;;;11.34;53.30;103060.66;4978130;28;98593;-70
2022/01/24 12:17:50;;;;;;;8.98;4.85;;;;;;;11.73;52.04;103056.13;4990765;28;99134;-72
2022/01/24 12:20:47;;;;;;;18.95;4.97;;;;;;;12.00;51.79;103058.69;4992017;28;101783;-69
2022/01/24 12:23:39;;;;;;;8.27;5.05;;;;;;;11.65;52.42;103056.13;4995402;28;97002;-70
2022/01/24 12:26:08;;;;;;;6.22;4.30;;;;;;;11.24;53.02;103058.00;4983971;28;97434;-70
2022/01/24 12:28:46;;;;;;;10.90;6.00;;;;;;;11.66;52.21;103049.97;4991025;28;98909;-70
2022/01/24 12:31:21;;;;;;;11.05;7.10;;;;;;;12.00;51.72;103055.16;4994039;28;98998;-70
2022/01/24 12:34:10;;;;;;;6.45;5.05;;;;;;;11.82;51.52;103048.16;4996936;28;98837;-71
2022/01/24 12:37:02;;;;;;;9.13;5.32;;;;;;;11.78;51.90;103049.06;4991936;28;98465;-72
2022/01/24 12:39:36;;;;;;;8.80;5.57;;;;;;;11.75;51.58;103042.00;4991709;28;99272;-72
2022/01/24 12:42:10;;;;;;;8.25;5.55;;;;;;;11.65;51.88;103044.66;4993915;28;98974;-70
2022/01/24 12:47:26;;;;;;;9.80;6.57;;;;;;;11.63;53.18;103046.41;4987710;28;98700;-72
2022/01/24 12:49:55;;;;;;;9.05;5.13;;;;;;;11.66;52.24;103043.78;4988517;28;99486;-70
2022/01/24 12:52:24;;;;;;;8.40;5.80;;;;;;;11.27;53.64;103050.94;4992345;28;97532;-71
2022/01/24 12:54:52;;;;;;;9.77;6.15;;;;;;;11.74;52.82;103042.03;4991645;28;96829;-71
2022/01/24 12:57:21;;;;;;;9.32;6.13;;;;;;;11.50;53.28;103043.81;4991397;28;98345;-71
2022/01/24 12:59:56;;;;;;;10.45;5.60;;;;;;;11.69;52.80;103047.28;4990451;28;102902;-72
2022/01/24 13:02:25;;;;;;;8.80;6.32;;;;;;;11.77;52.96;103039.34;4991996;28;99320;-72
2022/01/24 13:05:00;;;;;;;11.13;5.78;;;;;;;11.38;53.30;103035.91;4987449;28;98624;-72
2022/01/24 13:07:27;;;;;;;11.82;6.20;;;;;;;11.29;54.30;103038.56;4992177;28;98403;-73
2022/01/24 13:10:03;;;;;;;10.13;5.78;;;;;;;11.02;54.05;103030.72;4992119;28;98965;-71
2022/01/24 13:12:30;;;;;;;10.75;6.75;;;;;;;11.36;53.89;103032.38;4987847;28;99982;-70
2022/01/24 13:15:00;;;;;;;10.70;6.15;;;;;;;11.64;53.33;103033.19;4995279;28;96814;-72
2022/01/24 13:20:57;;;;;;;10.57;5.82;;;;;;;11.59;52.48;103030.56;4993309;28;97194;-70
2022/01/24 13:23:24;;;;;;;11.27;6.47;;;;;;;11.84;52.82;103028.72;4991204;28;98716;-73
2022/01/24 13:25:51;;;;;;;7.78;5.88;;;;;;;11.70;52.41;103037.56;4992783;28;99625;-69
2022/01/24 13:28:19;;;;;;;8.82;5.95;;;;;;;11.86;52.07;103044.63;4988332;28;97564;-71
2022/01/24 13:30:59;;;;;;;9.07;5.53;;;;;;;11.94;51.62;103037.53;4994509;28;99047;-70
2022/01/24 13:33:27;;;;;;;7.85;4.93;;;;;;;11.53;52.17;103035.88;4991765;28;98158;-70
2022/01/24 13:35:58;;;;;;;8.60;5.38;;;;;;;11.75;51.60;103035.84;4992187;28;96881;-70
2022/01/24 13:38:27;;;;;;;10.70;5.78;;;;;;;11.55;52.76;103039.38;5026708;22;97132;-75
2022/01/24 13:40:57;;;;;;;10.05;5.50;;;;;;;11.58;51.81;103041.16;5047598;27;97901;-76
2022/01/24 13:43:31;;;;;;;9.18;5.82;;;;;;;11.87;51.79;103046.38;5046877;27;97792;-75
2022/01/24 13:45:59;;;;;;;8.98;5.63;;;;;;;11.48;52.87;103053.56;5051519;27;96555;-76
2022/01/24 13:48:26;;;;;;;9.77;5.40;;;;;;;11.38;53.23;103048.28;5041857;28;97096;-77
2022/01/24 13:50:54;;;;;;;7.50;5.57;;;;;;;11.38;53.33;103041.22;5017397;28;97851;-75
2022/01/24 13:53:34;;;;;;;9.60;6.25;;;;;;;11.26;53.82;103046.53;5020029;28;99395;-75
2022/01/24 13:56:01;;;;;;;9.40;6.03;;;;;;;11.42;53.95;103048.25;5010165;28;96866;-75
2022/01/24 13:58:28;;;;;;;10.05;6.28;;;;;;;11.37;53.95;103050.03;5013008;28;97581;-73
2022/01/24 14:00:58;;;;;;;8.13;6.10;;;;;;;11.69;53.05;103046.41;5009597;28;97982;-75
2022/01/24 14:03:25;;;;;;;9.30;6.13;;;;;;;11.47;53.05;103050.91;5009574;28;97771;-76
2022/01/24 14:06:14;;;;;;;10.95;7.25;;;;;;;11.62;53.63;103049.97;5012327;28;97165;-73
2022/01/24 14:08:42;;;;;;;11.18;6.75;;;;;;;11.51;54.30;103050.00;5007215;28;96834;-75
2022/01/24 14:11:14;;;;;;;9.75;6.97;;;;;;;11.41;54.38;103048.28;5004689;28;99018;-74
2022/01/24 14:13:47;;;;;;;10.20;7.43;;;;;;;11.46;53.64;103043.84;5013589;28;97626;-76
2022/01/24 14:16:34;;;;;;;11.73;7.43;;;;;;;11.47;54.07;103046.50;5011665;28;96902;-73
2022/01/24 14:19:01;;;;;;;;;;;;;;;11.46;54.09;103043.84;5023227;28;97276;-74
2022/01/24 14:21:27;;;;;;;10.70;7.13;;;;;;;11.60;53.47;103047.34;5023534;28;98261;-76
2022/01/24 14:23:55;;;;;;;10.93;7.63;;;;;;;11.21;54.61;103047.44;5021823;28;97711;-73
2022/01/24 14:26:23;;;;;;;13.05;8.25;;;;;;;10.87;55.11;103043.94;5027581;28;96842;-75
2022/01/24 14:29:05;;;;;;;11.75;7.78;;;;;;;11.15;54.59;103037.75;5019439;28;96855;-76
2022/01/24 14:31:31;;;;;;;12.27;8.10;;;;;;;11.46;54.77;103035.91;5019594;28;98149;-75
2022/01/24 14:34:00;;;;;;;12.13;8.00;;;;;;;11.27;54.90;103036.84;5013666;28;98946;-76
2022/01/24 14:36:26;;;;;;;14.55;9.00;;;;;;;11.64;54.33;103029.66;5013127;28;97627;-74
2022/01/24 14:39:00;;;;;;;17.65;8.95;;;;;;;11.51;55.03;103026.16;5013874;28;96876;-75
2022/01/24 14:41:34;;;;;;;13.68;8.07;;;;;;;11.22;55.16;103023.63;5022637;28;99006;-74
2022/01/24 14:47:03;;;;;;;14.65;9.15;;;;;;;11.34;55.41;103030.66;4964023;28;96959;-75
2022/01/24 14:49:31;;;;;;;14.32;8.27;;;;;;;11.52;54.79;103036.75;4964965;28;97054;-75
2022/01/24 14:52:00;;;;;;;15.85;9.05;;;;;;;11.32;54.52;103033.28;4982740;28;99505;-75
2022/01/24 14:54:31;;;;;;;16.83;9.50;;;;;;;10.98;56.02;103039.50;5017536;28;98900;-75
2022/01/24 14:57:01;;;;;;;15.57;9.77;;;;;;;11.28;55.28;103033.31;5013110;28;99199;-75
2022/01/24 14:59:28;;;;;;;17.88;9.30;;;;;;;11.23;55.16;103032.41;5008208;28;97894;-75
2022/01/24 15:01:56;;;;;;;15.02;9.82;;;;;;;11.21;55.45;103037.72;5013193;28;99011;-75
2022/01/24 15:04:24;;;;;;;14.32;8.80;;;;;;;11.17;55.52;103036.84;5008936;28;99017;-74
2022/01/24 15:06:51;;;;;;;18.23;9.98;;;;;;;11.13;55.14;103039.50;5014166;28;98258;-75
2022/01/24 15:09:20;;;;;;;17.35;9.98;;;;;;;11.23;56.16;103038.59;5009334;28;97541;-76
2022/01/24 15:11:49;;;;;;;15.20;9.25;;;;;;;11.42;55.56;103035.00;5014487;28;98945;-76
2022/01/24 15:14:21;;;;;;;19.73;8.93;;;;;;;11.22;56.37;103035.97;5020463;28;101839;-75
2022/01/24 15:16:55;;;;;;;16.40;9.40;;;;;;;10.89;56.57;103036.88;5013360;28;96789;-74
2022/01/24 15:27:37;;;;;;;18.23;10.25;;;;;;;10.63;57.64;103039.53;5018176;28;97671;-75
2022/01/24 15:30:05;;;;;;;18.70;10.07;;;;;;;10.34;57.91;103039.50;5013842;28;97230;-75
2022/01/24 15:32:31;;;;;;;14.70;9.23;;;;;;;10.93;57.03;103051.88;5011473;28;99024;-75
2022/01/24 15:34:58;;;;;;;18.50;11.05;;;;;;;11.05;56.34;103042.16;5014489;28;96800;-75
2022/01/24 15:37:24;;;;;;;19.67;10.90;;;;;;;10.55;56.95;103050.09;5021613;28;96946;-74
2022/01/24 15:39:53;;;;;;;17.55;10.23;;;;;;;10.62;56.67;103043.94;5017165;28;97286;-75
2022/01/24 15:42:32;;;;;;;18.63;11.27;;;;;;;10.92;56.45;103044.81;5014388;28;98871;-75
2022/01/24 15:45:27;;;;;;;16.52;10.00;;;;;;;11.29;55.43;103038.56;5011619;28;98720;-74
2022/01/24 15:47:55;;;;;;;17.25;10.23;;;;;;;11.26;55.13;103035.06;5013416;28;98951;-75
2022/01/24 15:50:23;;;;;;;20.08;10.85;;;;;;;11.00;55.34;103021.88;5015302;28;98340;-73
2022/01/24 15:52:51;;;;;;;17.92;9.90;;;;;;;10.75;56.71;103032.50;5011107;28;99098;-74
2022/01/24 15:55:22;;;;;;;17.27;10.63;;;;;;;10.78;56.24;103028.94;5013568;28;98260;-77
2022/01/24 15:57:48;;;;;;;18.63;10.48;;;;;;;11.06;55.94;103035.09;5012603;28;96894;-76
2022/01/24 16:00:22;;;;;;;18.10;10.23;;;;;;;10.52;56.56;103038.63;5010111;28;97554;-76
2022/01/24 16:02:50;;;;;;;19.67;11.40;;;;;;;10.59;56.86;103045.69;5008026;28;98226;-77
2022/01/24 16:05:19;;;;;;;23.23;13.80;;;;;;;10.57;56.49;103036.84;5015988;28;98996;-77
2022/01/24 16:07:47;;;;;;;24.98;13.98;;;;;;;11.04;55.66;103034.22;5012365;28;96747;-77
2022/01/24 16:10:16;;;;;;;18.02;10.80;;;;;;;11.16;55.29;103039.47;5019121;28;96882;-79
2022/01/24 16:12:45;;;;;;;18.58;10.45;;;;;;;11.01;55.30;103036.88;5020818;28;96903;-77
2022/01/24 16:15:13;;;;;;;18.08;11.13;;;;;;;11.18;54.96;103043.91;5016844;28;98709;-76
2022/01/24 16:17:42;;;;;;;20.38;11.25;;;;;;;11.23;55.28;103040.34;5024785;28;97030;-77
2022/01/24 16:20:21;;;;;;;22.15;11.52;;;;;;;11.15;55.21;103045.69;5017520;28;96866;-77
2022/01/24 16:23:00;;;;;;;19.20;10.93;;;;;;;11.04;54.96;103040.38;5018088;28;99003;-77
2022/01/24 16:25:37;;;;;;;20.10;11.85;;;;;;;10.75;55.44;103040.41;5027740;28;98853;-78
2022/01/24 16:28:08;;;;;;;17.92;10.98;;;;;;;11.11;55.49;103042.16;5018332;28;97835;-76
2022/01/24 16:30:37;;;;;;;20.23;11.13;;;;;;;11.16;54.90;103042.13;5020859;28;96799;-77
2022/01/24 16:33:06;;;;;;;19.88;11.52;;;;;;;10.74;55.89;103038.66;5018575;28;98891;-78
2022/01/24 16:35:34;;;;;;;18.23;11.02;;;;;;;10.71;56.19;103041.28;5016102;28;98085;-78
2022/01/24 16:38:02;;;;;;;19.23;11.35;;;;;;;10.80;56.23;103040.41;5017199;28;96843;-76
2022/01/24 16:40:33;;;;;;;18.90;11.77;;;;;;;11.08;56.01;103043.94;5029402;28;96687;-78
2022/01/24 16:43:23;;;;;;;20.10;11.18;;;;;;;10.56;56.16;103045.69;5017713;28;99407;-77
2022/01/24 16:48:37;;;;;;;21.42;11.75;;;;;;;10.48;57.67;103052.72;5016714;28;96984;-78
2022/01/24 16:51:06;;;;;;;20.73;12.40;;;;;;;10.72;56.69;103050.09;5018068;28;97059;-77
2022/01/24 16:53:32;;;;;;;21.58;11.02;;;;;;;10.76;57.05;103052.72;5017962;28;97690;-74
2022/01/24 16:55:59;;;;;;;19.63;11.27;;;;;;;10.81;56.07;103042.19;5017492;28;98531;-79
2022/01/24 16:58:27;;;;;;;19.13;11.70;;;;;;;10.94;55.69;103035.13;5015571;28;96795;-75
2022/01/24 17:00:54;;;;;;;21.05;12.55;;;;;;;10.65;55.78;103051.84;5015209;28;97719;-76